Search for airport 
image banner adimage banner ad
image banner ad

SVBE - San Benito

Located in Zulia, Venezuela

ICAO - SVBE, IATA -

Data provided by Airmate  

General information

Coordinates: N10°18'48" W72°3'48"
Elevation is 249 feet MSL.
 
View others Airports in Zulia

Operational data

Open for public use
Current time UTC:
Current local time:
Weather at : SVMC - Maracaibo / La Chinita Intl ( 46 km )
METAR: SVMC 290102Z AUTO 03009KT NCD 29/24 Q1007
TAF: TAF SVMC 282200Z 2900/3000 14005KT 9999 SCT013 TX34/2919Z TN24/2907Z TEMPO 2900/2904 00000KT 8000 DZ OVC013 FM290500 00000KT 9000 DZ BKN013
View NOTAMs / SUP AIP / TFR affecting this airport [VIEW]
Communications frequencies: [VIEW]

Runways:

RWY identifierQFULength (ft)Width (ft)SurfaceLDA (ft)
0200
2000

Airport contact information

Address: Zulia Venezuela

Satellite view of SVBE